sensor_id;sensor_type;location;lat;lon;timestamp;pressure;altitude;pressure_sealevel;temperature;humidity
6423;BME280;3244;42.708;23.288;2023-03-04T00:01:20;95076.03;;;7.47;87.38
6423;BME280;3244;42.708;23.288;2023-03-04T00:03:47;95073.56;;;7.44;86.71
6423;BME280;3244;42.708;23.288;2023-03-04T00:06:13;95078.00;;;7.36;87.08
6423;BME280;3244;42.708;23.288;2023-03-04T00:08:40;95074.78;;;7.28;87.34
6423;BME280;3244;42.708;23.288;2023-03-04T00:11:07;95075.59;;;7.28;88.24
6423;BME280;3244;42.708;23.288;2023-03-04T00:13:35;95072.75;;;7.43;88.00
6423;BME280;3244;42.708;23.288;2023-03-04T00:16:01;95064.47;;;7.38;87.96
6423;BME280;3244;42.708;23.288;2023-03-04T00:18:28;95063.59;;;7.39;86.91
6423;BME280;3244;42.708;23.288;2023-03-04T00:20:55;95066.97;;;7.38;88.02
6423;BME280;3244;42.708;23.288;2023-03-04T00:23:21;95064.44;;;7.40;87.00
6423;BME280;3244;42.708;23.288;2023-03-04T00:25:48;95068.63;;;7.41;86.97
6423;BME280;3244;42.708;23.288;2023-03-04T00:28:15;95057.53;;;7.46;86.45
6423;BME280;3244;42.708;23.288;2023-03-04T00:30:43;95058.44;;;7.42;87.49
6423;BME280;3244;42.708;23.288;2023-03-04T00:33:10;95059.22;;;7.46;86.83
6423;BME280;3244;42.708;23.288;2023-03-04T00:35:36;95059.94;;;7.51;86.73
6423;BME280;3244;42.708;23.288;2023-03-04T00:38:03;95054.19;;;7.44;86.16
6423;BME280;3244;42.708;23.288;2023-03-04T00:40:30;95054.19;;;7.44;86.53
6423;BME280;3244;42.708;23.288;2023-03-04T00:42:56;95049.13;;;7.44;86.91
6423;BME280;3244;42.708;23.288;2023-03-04T00:45:23;95054.53;;;7.29;87.11
6423;BME280;3244;42.708;23.288;2023-03-04T00:47:51;95049.53;;;7.26;87.49
6423;BME280;3244;42.708;23.288;2023-03-04T00:50:18;95044.47;;;7.26;87.13
6423;BME280;3244;42.708;23.288;2023-03-04T00:52:45;95048.75;;;7.23;87.81
6423;BME280;3244;42.708;23.288;2023-03-04T00:55:12;95048.91;;;7.16;88.66
6423;BME280;3244;42.708;23.288;2023-03-04T00:57:38;95048.06;;;7.16;88.18
6423;BME280;3244;42.708;23.288;2023-03-04T01:00:06;95045.53;;;7.16;88.63
6423;BME280;3244;42.708;23.288;2023-03-04T01:02:33;95048.72;;;7.24;87.53
6423;BME280;3244;42.708;23.288;2023-03-04T01:05:01;95042.50;;;7.40;86.39
6423;BME280;3244;42.708;23.288;2023-03-04T01:07:28;95042.56;;;7.37;86.22
6423;BME280;3244;42.708;23.288;2023-03-04T01:09:54;95044.22;;;7.38;85.28
6423;BME280;3244;42.708;23.288;2023-03-04T01:12:21;95044.22;;;7.38;85.37
6423;BME280;3244;42.708;23.288;2023-03-04T01:14:48;95049.50;;;7.28;85.42
6423;BME280;3244;42.708;23.288;2023-03-04T01:17:15;95044.41;;;7.29;85.34
6423;BME280;3244;42.708;23.288;2023-03-04T01:19:42;95046.91;;;7.31;84.81
6423;BME280;3244;42.708;23.288;2023-03-04T01:22:10;95041.84;;;7.31;86.07
6423;BME280;3244;42.708;23.288;2023-03-04T01:24:39;95039.41;;;7.26;85.80
6423;BME280;3244;42.708;23.288;2023-03-04T01:27:06;95036.97;;;7.22;85.69
6423;BME280;3244;42.708;23.288;2023-03-04T01:29:33;95037.88;;;7.19;85.79
6423;BME280;3244;42.708;23.288;2023-03-04T01:31:59;95033.53;;;7.26;85.08
6423;BME280;3244;42.708;23.288;2023-03-04T01:34:26;95027.69;;;7.22;85.39
6423;BME280;3244;42.708;23.288;2023-03-04T01:36:53;95034.44;;;7.23;86.27
6423;BME280;3244;42.708;23.288;2023-03-04T01:39:21;95016.09;;;7.15;85.36
6423;BME280;3244;42.708;23.288;2023-03-04T01:41:48;95031.09;;;7.21;85.55
6423;BME280;3244;42.708;23.288;2023-03-04T01:44:15;95020.94;;;7.24;85.95
6423;BME280;3244;42.708;23.288;2023-03-04T01:46:45;95017.38;;;7.33;85.33
6423;BME280;3244;42.708;23.288;2023-03-04T01:49:13;95002.94;;;7.38;84.48
6423;BME280;3244;42.708;23.288;2023-03-04T01:51:42;95007.31;;;7.31;84.11
6423;BME280;3244;42.708;23.288;2023-03-04T01:54:09;95010.00;;;7.22;85.00
6423;BME280;3244;42.708;23.288;2023-03-04T01:56:39;94996.09;;;7.04;85.99
6423;BME280;3244;42.708;23.288;2023-03-04T01:59:10;95013.00;;;7.01;86.43
6423;BME280;3244;42.708;23.288;2023-03-04T02:01:38;95003.63;;;7.06;86.07
6423;BME280;3244;42.708;23.288;2023-03-04T02:04:06;95011.97;;;7.09;85.67
6423;BME280;3244;42.708;23.288;2023-03-04T02:06:34;95007.84;;;7.05;85.83
6423;BME280;3244;42.708;23.288;2023-03-04T02:09:01;95006.34;;;6.97;86.48
6423;BME280;3244;42.708;23.288;2023-03-04T02:11:29;95009.03;;;6.89;86.23
6423;BME280;3244;42.708;23.288;2023-03-04T02:13:57;95011.59;;;6.88;86.79
6423;BME280;3244;42.708;23.288;2023-03-04T02:16:24;95000.59;;;6.90;87.26
6423;BME280;3244;42.708;23.288;2023-03-04T02:18:51;95009.66;;;6.99;86.56
6423;BME280;3244;42.708;23.288;2023-03-04T02:21:22;95007.13;;;6.99;86.81
6423;BME280;3244;42.708;23.288;2023-03-04T02:23:56;94999.63;;;6.96;86.65
6423;BME280;3244;42.708;23.288;2023-03-04T02:26:28;95001.28;;;6.97;86.19
6423;BME280;3244;42.708;23.288;2023-03-04T02:28:57;95008.97;;;6.92;86.46
6423;BME280;3244;42.708;23.288;2023-03-04T02:31:27;95003.22;;;6.86;86.54
6423;BME280;3244;42.708;23.288;2023-03-04T02:33:57;95010.00;;;6.83;87.39
6423;BME280;3244;42.708;23.288;2023-03-04T02:36:24;95010.97;;;6.76;87.04
6423;BME280;3244;42.708;23.288;2023-03-04T02:38:52;95005.13;;;6.73;86.87
6423;BME280;3244;42.708;23.288;2023-03-04T02:41:22;95003.44;;;6.73;87.34
6423;BME280;3244;42.708;23.288;2023-03-04T02:43:52;94999.13;;;6.80;87.06
6423;BME280;3244;42.708;23.288;2023-03-04T02:46:19;94994.09;;;6.78;86.93
6423;BME280;3244;42.708;23.288;2023-03-04T02:48:46;94990.63;;;6.84;86.47
6423;BME280;3244;42.708;23.288;2023-03-04T02:51:13;94985.50;;;6.87;87.23
6423;BME280;3244;42.708;23.288;2023-03-04T02:53:39;94981.47;;;6.78;86.45
6423;BME280;3244;42.708;23.288;2023-03-04T02:56:06;94986.59;;;6.74;87.05
6423;BME280;3244;42.708;23.288;2023-03-04T02:58:33;94985.97;;;6.64;87.43
6423;BME280;3244;42.708;23.288;2023-03-04T03:01:01;94981.06;;;6.57;87.66
6423;BME280;3244;42.708;23.288;2023-03-04T03:03:28;94982.91;;;6.47;88.16
6423;BME280;3244;42.708;23.288;2023-03-04T03:05:55;94984.75;;;6.40;88.40
6423;BME280;3244;42.708;23.288;2023-03-04T03:08:22;94991.66;;;6.29;89.06
6423;BME280;3244;42.708;23.288;2023-03-04T03:10:48;94996.72;;;6.29;88.64
6423;BME280;3244;42.708;23.288;2023-03-04T03:13:15;94994.50;;;6.12;89.43
6423;BME280;3244;42.708;23.288;2023-03-04T03:15:42;94992.06;;;6.08;90.18
6423;BME280;3244;42.708;23.288;2023-03-04T03:18:10;94989.69;;;5.97;90.61
6423;BME280;3244;42.708;23.288;2023-03-04T03:20:37;94989.84;;;5.88;90.60
6423;BME280;3244;42.708;23.288;2023-03-04T03:23:04;94993.22;;;5.87;91.67
6423;BME280;3244;42.708;23.288;2023-03-04T03:25:31;94989.84;;;5.88;91.20
6423;BME280;3244;42.708;23.288;2023-03-04T03:27:58;94989.03;;;5.89;90.64
6423;BME280;3244;42.708;23.288;2023-03-04T03:30:25;94991.53;;;5.89;91.52
6423;BME280;3244;42.708;23.288;2023-03-04T03:32:52;94981.44;;;5.89;91.45
6423;BME280;3244;42.708;23.288;2023-03-04T03:35:20;94980.69;;;5.82;91.17
6423;BME280;3244;42.708;23.288;2023-03-04T03:37:47;94988.31;;;5.78;91.69
6423;BME280;3244;42.708;23.288;2023-03-04T03:40:14;94981.66;;;5.74;91.36
6423;BME280;3244;42.708;23.288;2023-03-04T03:42:41;94988.38;;;5.75;91.36
6423;BME280;3244;42.708;23.288;2023-03-04T03:45:09;94984.25;;;5.69;90.86
6423;BME280;3244;42.708;23.288;2023-03-04T03:47:36;94981.00;;;5.64;91.88
6423;BME280;3244;42.708;23.288;2023-03-04T03:50:04;94975.16;;;5.61;91.74
6423;BME280;3244;42.708;23.288;2023-03-04T03:52:32;94988.66;;;5.57;91.82
6423;BME280;3244;42.708;23.288;2023-03-04T03:54:59;94987.03;;;5.53;92.11
6423;BME280;3244;42.708;23.288;2023-03-04T03:57:27;94978.75;;;5.44;92.59
6423;BME280;3244;42.708;23.288;2023-03-04T03:59:54;94983.00;;;5.42;92.41
6423;BME280;3244;42.708;23.288;2023-03-04T04:02:20;94976.19;;;5.47;92.21
6423;BME280;3244;42.708;23.288;2023-03-04T04:04:48;94972.00;;;5.46;91.88
6423;BME280;3244;42.708;23.288;2023-03-04T04:07:14;94968.78;;;5.38;92.10
6423;BME280;3244;42.708;23.288;2023-03-04T04:09:42;94941.25;;;5.26;92.45
6423;BME280;3244;42.708;23.288;2023-03-04T04:12:10;94965.50;;;5.33;92.84
6423;BME280;3244;42.708;23.288;2023-03-04T04:14:39;94957.13;;;5.31;92.62
6423;BME280;3244;42.708;23.288;2023-03-04T04:17:05;94962.16;;;5.31;93.05
6423;BME280;3244;42.708;23.288;2023-03-04T04:19:32;94958.81;;;5.31;93.02
6423;BME280;3244;42.708;23.288;2023-03-04T04:21:59;94967.25;;;5.28;92.74
6423;BME280;3244;42.708;23.288;2023-03-04T04:24:26;94968.16;;;5.24;93.05
6423;BME280;3244;42.708;23.288;2023-03-04T04:26:54;94969.03;;;5.20;92.75
6423;BME280;3244;42.708;23.288;2023-03-04T04:29:21;94968.28;;;5.15;93.19
6423;BME280;3244;42.708;23.288;2023-03-04T04:31:48;94963.25;;;5.15;92.95
6423;BME280;3244;42.708;23.288;2023-03-04T04:34:15;94963.28;;;5.13;92.79
6423;BME280;3244;42.708;23.288;2023-03-04T04:36:42;94960.75;;;5.15;92.67
6423;BME280;3244;42.708;23.288;2023-03-04T04:39:09;94962.47;;;5.10;93.30
6423;BME280;3244;42.708;23.288;2023-03-04T04:41:37;94966.69;;;5.09;93.33
6423;BME280;3244;42.708;23.288;2023-03-04T04:44:06;94957.53;;;5.02;92.96
6423;BME280;3244;42.708;23.288;2023-03-04T04:46:33;94969.25;;;5.06;92.91
6423;BME280;3244;42.708;23.288;2023-03-04T04:49:00;94968.41;;;5.06;92.97
6423;BME280;3244;42.708;23.288;2023-03-04T04:51:27;94968.50;;;5.00;92.72
6423;BME280;3244;42.708;23.288;2023-03-04T04:53:54;94966.00;;;4.98;92.99
6423;BME280;3244;42.708;23.288;2023-03-04T04:56:23;94960.19;;;4.95;93.04
6423;BME280;3244;42.708;23.288;2023-03-04T04:58:52;94973.56;;;4.97;92.69
6423;BME280;3244;42.708;23.288;2023-03-04T05:01:20;94976.09;;;4.97;93.00
6423;BME280;3244;42.708;23.288;2023-03-04T05:03:47;94982.84;;;4.95;92.59
6423;BME280;3244;42.708;23.288;2023-03-04T05:06:18;94976.16;;;4.94;93.36
6423;BME280;3244;42.708;23.288;2023-03-04T05:08:45;94987.88;;;4.95;93.05
6423;BME280;3244;42.708;23.288;2023-03-04T05:11:12;94991.16;;;4.98;93.10
6423;BME280;3244;42.708;23.288;2023-03-04T05:13:38;94994.50;;;5.02;92.74
6423;BME280;3244;42.708;23.288;2023-03-04T05:16:06;95001.06;;;5.12;92.80
6423;BME280;3244;42.708;23.288;2023-03-04T05:18:34;94996.69;;;5.25;92.16
6423;BME280;3244;42.708;23.288;2023-03-04T05:21:02;94999.00;;;5.40;91.64
6423;BME280;3244;42.708;23.288;2023-03-04T05:23:32;94998.06;;;5.45;92.00
6423;BME280;3244;42.708;23.288;2023-03-04T05:25:59;95000.41;;;5.58;91.91
6423;BME280;3244;42.708;23.288;2023-03-04T05:28:26;94994.31;;;5.71;90.84
6423;BME280;3244;42.708;23.288;2023-03-04T05:30:53;94995.78;;;5.86;91.13
6423;BME280;3244;42.708;23.288;2023-03-04T05:33:20;95000.56;;;6.01;90.40
6423;BME280;3244;42.708;23.288;2023-03-04T05:35:49;95002.88;;;6.14;90.86
6423;BME280;3244;42.708;23.288;2023-03-04T05:38:18;95011.03;;;6.29;89.66
6423;BME280;3244;42.708;23.288;2023-03-04T05:40:46;95006.34;;;6.54;87.26
6423;BME280;3244;42.708;23.288;2023-03-04T05:43:13;95007.81;;;6.67;87.18
6423;BME280;3244;42.708;23.288;2023-03-04T05:45:41;95003.22;;;6.86;86.50
6423;BME280;3244;42.708;23.288;2023-03-04T05:48:08;95008.75;;;7.03;87.29
6423;BME280;3244;42.708;23.288;2023-03-04T05:50:35;95006.63;;;7.23;86.51
6423;BME280;3244;42.708;23.288;2023-03-04T05:53:04;95009.59;;;7.42;85.46
6423;BME280;3244;42.708;23.288;2023-03-04T05:55:30;95013.56;;;7.52;85.64
6423;BME280;3244;42.708;23.288;2023-03-04T05:57:57;95013.53;;;7.54;84.91
6423;BME280;3244;42.708;23.288;2023-03-04T06:00:24;95021.09;;;7.55;84.47
6423;BME280;3244;42.708;23.288;2023-03-04T06:02:51;95026.19;;;7.54;82.84
6423;BME280;3244;42.708;23.288;2023-03-04T06:05:19;95024.41;;;7.57;82.94
6423;BME280;3244;42.708;23.288;2023-03-04T06:07:46;95023.38;;;7.66;83.17
6423;BME280;3244;42.708;23.288;2023-03-04T06:10:16;95028.28;;;7.72;82.86
6423;BME280;3244;42.708;23.288;2023-03-04T06:12:43;95024.75;;;7.79;82.46
6423;BME280;3244;42.708;23.288;2023-03-04T06:15:10;95029.69;;;7.85;82.89
6423;BME280;3244;42.708;23.288;2023-03-04T06:17:38;95029.44;;;7.94;82.54
6423;BME280;3244;42.708;23.288;2023-03-04T06:20:06;95032.56;;;8.05;82.07
6423;BME280;3244;42.708;23.288;2023-03-04T06:22:33;95028.94;;;8.15;80.96
6423;BME280;3244;42.708;23.288;2023-03-04T06:25:00;95032.97;;;8.23;80.41
6423;BME280;3244;42.708;23.288;2023-03-04T06:27:29;95035.25;;;8.35;80.47
6423;BME280;3244;42.708;23.288;2023-03-04T06:29:56;95035.09;;;8.41;80.45
6423;BME280;3244;42.708;23.288;2023-03-04T06:32:22;95040.84;;;8.46;80.81
6423;BME280;3244;42.708;23.288;2023-03-04T06:34:49;95042.28;;;8.56;80.75
6423;BME280;3244;42.708;23.288;2023-03-04T06:37:16;95035.09;;;8.72;79.90
6423;BME280;3244;42.708;23.288;2023-03-04T06:39:43;95040.31;;;8.97;79.41
6423;BME280;3244;42.708;23.288;2023-03-04T06:42:10;95039.38;;;9.30;78.48
6423;BME280;3244;42.708;23.288;2023-03-04T06:44:38;95039.41;;;9.58;77.28
6423;BME280;3244;42.708;23.288;2023-03-04T06:47:05;95045.47;;;9.80;75.91
6423;BME280;3244;42.708;23.288;2023-03-04T06:49:32;95037.44;;;9.94;75.16
6423;BME280;3244;42.708;23.288;2023-03-04T06:51:59;95042.31;;;10.00;74.30
6423;BME280;3244;42.708;23.288;2023-03-04T06:54:26;95044.06;;;9.98;73.31
6423;BME280;3244;42.708;23.288;2023-03-04T06:56:53;95041.25;;;9.81;73.19
6423;BME280;3244;42.708;23.288;2023-03-04T06:59:19;95052.50;;;9.72;73.02
6423;BME280;3244;42.708;23.288;2023-03-04T07:01:47;95048.72;;;9.58;73.16
6423;BME280;3244;42.708;23.288;2023-03-04T07:04:14;95057.91;;;9.62;73.48
6423;BME280;3244;42.708;23.288;2023-03-04T07:06:41;95048.63;;;9.61;74.05
6423;BME280;3244;42.708;23.288;2023-03-04T07:09:08;95052.75;;;9.65;73.59
6423;BME280;3244;42.708;23.288;2023-03-04T07:11:34;95053.72;;;9.61;72.99
6423;BME280;3244;42.708;23.288;2023-03-04T07:14:01;95060.88;;;9.46;72.93
6423;BME280;3244;42.708;23.288;2023-03-04T07:16:28;95050.44;;;9.28;72.95
6423;BME280;3244;42.708;23.288;2023-03-04T07:18:56;95056.69;;;9.16;73.77
6423;BME280;3244;42.708;23.288;2023-03-04T07:21:23;95058.75;;;9.33;74.18
6423;BME280;3244;42.708;23.288;2023-03-04T07:23:50;95053.41;;;9.70;73.11
6423;BME280;3244;42.708;23.288;2023-03-04T07:26:17;95051.22;;;10.40;71.89
6423;BME280;3244;42.708;23.288;2023-03-04T07:28:44;95058.97;;;11.33;66.93
6423;BME280;3244;42.708;23.288;2023-03-04T07:31:13;95054.34;;;11.66;65.03
6423;BME280;3244;42.708;23.288;2023-03-04T07:33:44;95061.63;;;11.77;65.15
6423;BME280;3244;42.708;23.288;2023-03-04T07:36:12;95050.53;;;12.62;63.08
6423;BME280;3244;42.708;23.288;2023-03-04T07:38:42;95047.16;;;13.96;59.39
6423;BME280;3244;42.708;23.288;2023-03-04T07:41:09;95041.06;;;14.69;55.86
6423;BME280;3244;42.708;23.288;2023-03-04T07:43:36;95048.00;;;14.67;55.24
6423;BME280;3244;42.708;23.288;2023-03-04T07:46:03;95026.00;;;14.28;56.05
6423;BME280;3244;42.708;23.288;2023-03-04T07:48:30;95051.84;;;14.05;56.32
6423;BME280;3244;42.708;23.288;2023-03-04T07:51:04;95040.34;;;13.78;57.16
6423;BME280;3244;42.708;23.288;2023-03-04T07:53:34;95047.34;;;13.55;57.25
6423;BME280;3244;42.708;23.288;2023-03-04T07:56:01;95043.16;;;13.36;58.65
6423;BME280;3244;42.708;23.288;2023-03-04T07:58:28;95028.56;;;13.19;59.18
6423;BME280;3244;42.708;23.288;2023-03-04T08:00:55;95036.75;;;13.07;59.92
6423;BME280;3244;42.708;23.288;2023-03-04T08:03:22;95041.22;;;13.02;59.41
6423;BME280;3244;42.708;23.288;2023-03-04T08:05:49;95042.22;;;12.98;59.22
6423;BME280;3244;42.708;23.288;2023-03-04T08:08:16;95033.84;;;12.75;58.92
6423;BME280;3244;42.708;23.288;2023-03-04T08:10:44;95034.22;;;12.46;59.92
6423;BME280;3244;42.708;23.288;2023-03-04T08:13:11;95039.22;;;12.07;61.25
6423;BME280;3244;42.708;23.288;2023-03-04T08:15:41;95039.56;;;11.76;62.37
6423;BME280;3244;42.708;23.288;2023-03-04T08:18:08;95040.47;;;11.30;63.08
6423;BME280;3244;42.708;23.288;2023-03-04T08:20:35;95048.13;;;11.05;63.89
6423;BME280;3244;42.708;23.288;2023-03-04T08:23:02;95046.91;;;10.67;65.18
6423;BME280;3244;42.708;23.288;2023-03-04T08:25:29;95046.22;;;10.38;66.27
6423;BME280;3244;42.708;23.288;2023-03-04T08:27:57;95039.63;;;10.33;67.74
6423;BME280;3244;42.708;23.288;2023-03-04T08:30:24;95039.13;;;10.21;67.34
6423;BME280;3244;42.708;23.288;2023-03-04T08:32:51;95048.81;;;10.09;67.97
6423;BME280;3244;42.708;23.288;2023-03-04T08:35:17;95035.16;;;9.86;68.64
6423;BME280;3244;42.708;23.288;2023-03-04T08:37:44;95039.19;;;9.92;69.01
6423;BME280;3244;42.708;23.288;2023-03-04T08:40:12;95032.50;;;10.16;68.87
6423;BME280;3244;42.708;23.288;2023-03-04T08:42:39;95031.13;;;10.34;67.83
6423;BME280;3244;42.708;23.288;2023-03-04T08:45:09;95029.31;;;10.62;66.96
6423;BME280;3244;42.708;23.288;2023-03-04T08:47:36;95027.06;;;10.78;66.04
6423;BME280;3244;42.708;23.288;2023-03-04T08:50:04;95026.13;;;11.04;65.86
6423;BME280;3244;42.708;23.288;2023-03-04T08:52:31;95026.78;;;11.32;65.26
6423;BME280;3244;42.708;23.288;2023-03-04T08:54:58;95023.84;;;11.65;63.97
6423;BME280;3244;42.708;23.288;2023-03-04T08:57:25;95024.59;;;11.90;63.46
6423;BME280;3244;42.708;23.288;2023-03-04T08:59:51;95021.00;;;12.16;61.88
6423;BME280;3244;42.708;23.288;2023-03-04T09:02:19;95017.16;;;12.27;60.01
6423;BME280;3244;42.708;23.288;2023-03-04T09:04:46;95015.84;;;12.17;60.69
6423;BME280;3244;42.708;23.288;2023-03-04T09:07:13;95017.63;;;12.15;61.29
6423;BME280;3244;42.708;23.288;2023-03-04T09:09:40;95013.69;;;12.08;61.23
6423;BME280;3244;42.708;23.288;2023-03-04T09:12:07;95015.41;;;12.08;61.92
6423;BME280;3244;42.708;23.288;2023-03-04T09:14:34;95014.47;;;12.10;62.01
6423;BME280;3244;42.708;23.288;2023-03-04T09:17:01;95016.69;;;12.18;61.90
6423;BME280;3244;42.708;23.288;2023-03-04T09:19:29;95009.56;;;12.26;61.30
6423;BME280;3244;42.708;23.288;2023-03-04T09:21:56;95006.44;;;12.40;60.83
6423;BME280;3244;42.708;23.288;2023-03-04T09:24:24;95002.50;;;12.53;60.83
6423;BME280;3244;42.708;23.288;2023-03-04T09:26:51;95007.97;;;12.64;60.58
6423;BME280;3244;42.708;23.288;2023-03-04T09:29:18;94999.53;;;12.62;60.32
6423;BME280;3244;42.708;23.288;2023-03-04T09:31:44;95002.47;;;12.73;59.98
6423;BME280;3244;42.708;23.288;2023-03-04T09:34:11;95003.06;;;12.99;59.42
6423;BME280;3244;42.708;23.288;2023-03-04T09:36:39;94998.16;;;13.33;58.42
6423;BME280;3244;42.708;23.288;2023-03-04T09:39:06;94991.06;;;13.76;57.86
6423;BME280;3244;42.708;23.288;2023-03-04T09:41:36;94997.03;;;14.11;56.50
6423;BME280;3244;42.708;23.288;2023-03-04T09:44:12;95001.34;;;14.10;55.96
6423;BME280;3244;42.708;23.288;2023-03-04T09:46:42;94998.63;;;14.13;56.46
6423;BME280;3244;42.708;23.288;2023-03-04T09:49:11;94999.53;;;14.12;55.94
6423;BME280;3244;42.708;23.288;2023-03-04T09:51:48;94997.88;;;14.11;55.40
6423;BME280;3244;42.708;23.288;2023-03-04T09:54:26;94986.31;;;14.04;55.80
6423;BME280;3244;42.708;23.288;2023-03-04T09:57:11;94986.66;;;13.96;55.59
6423;BME280;3244;42.708;23.288;2023-03-04T09:59:44;94987.94;;;13.88;55.87
6423;BME280;3244;42.708;23.288;2023-03-04T10:02:20;94985.31;;;13.89;55.95
6423;BME280;3244;42.708;23.288;2023-03-04T10:04:58;94984.31;;;13.75;55.86
6423;BME280;3244;42.708;23.288;2023-03-04T10:07:32;94980.53;;;13.65;56.88
6423;BME280;3244;42.708;23.288;2023-03-04T10:10:02;94975.13;;;13.71;56.38
6423;BME280;3244;42.708;23.288;2023-03-04T10:12:31;94977.88;;;13.85;56.57
6423;BME280;3244;42.708;23.288;2023-03-04T10:15:01;94976.38;;;14.15;55.96
6423;BME280;3244;42.708;23.288;2023-03-04T10:17:33;94967.19;;;14.63;54.20
6423;BME280;3244;42.708;23.288;2023-03-04T10:20:04;94964.41;;;15.01;53.38
6423;BME280;3244;42.708;23.288;2023-03-04T10:22:36;94957.69;;;15.31;52.77
6423;BME280;3244;42.708;23.288;2023-03-04T10:25:19;94952.00;;;15.57;51.05
6423;BME280;3244;42.708;23.288;2023-03-04T10:27:49;94953.44;;;15.46;51.02
6423;BME280;3244;42.708;23.288;2023-03-04T10:30:25;94951.81;;;15.45;51.19
6423;BME280;3244;42.708;23.288;2023-03-04T10:32:56;94946.91;;;15.40;51.27
6423;BME280;3244;42.708;23.288;2023-03-04T10:35:28;94935.28;;;15.35;51.66
6423;BME280;3244;42.708;23.288;2023-03-04T10:38:01;94943.53;;;15.40;51.79
6423;BME280;3244;42.708;23.288;2023-03-04T10:40:37;94933.47;;;15.21;51.69
6423;BME280;3244;42.708;23.288;2023-03-04T10:43:04;94928.06;;;14.78;52.75
6423;BME280;3244;42.708;23.288;2023-03-04T10:45:37;94927.06;;;14.48;53.34
6423;BME280;3244;42.708;23.288;2023-03-04T10:48:04;94924.38;;;14.34;53.79
6423;BME280;3244;42.708;23.288;2023-03-04T10:50:31;94925.72;;;14.41;54.06
6423;BME280;3244;42.708;23.288;2023-03-04T10:52:59;94911.72;;;14.48;53.93
6423;BME280;3244;42.708;23.288;2023-03-04T10:55:27;94914.88;;;14.53;53.55
6423;BME280;3244;42.708;23.288;2023-03-04T10:57:56;94911.72;;;14.48;53.92
6423;BME280;3244;42.708;23.288;2023-03-04T11:00:29;94915.88;;;14.33;54.31
6423;BME280;3244;42.708;23.288;2023-03-04T11:03:27;94906.56;;;13.98;55.38
6423;BME280;3244;42.708;23.288;2023-03-04T11:06:08;94902.81;;;13.87;55.61
6423;BME280;3244;42.708;23.288;2023-03-04T11:08:39;94898.44;;;13.89;55.95
6423;BME280;3244;42.708;23.288;2023-03-04T11:11:21;94889.19;;;13.87;56.25
6423;BME280;3244;42.708;23.288;2023-03-04T11:13:52;94891.25;;;13.98;55.57
6423;BME280;3244;42.708;23.288;2023-03-04T11:16:27;94853.13;;;13.93;54.89
6423;BME280;3244;42.708;23.288;2023-03-04T11:18:58;94874.78;;;14.03;55.65
6423;BME280;3244;42.708;23.288;2023-03-04T11:21:28;94872.97;;;14.05;56.19
6423;BME280;3244;42.708;23.288;2023-03-04T11:23:59;94867.72;;;14.08;55.73
6423;BME280;3244;42.708;23.288;2023-03-04T11:26:30;94868.69;;;14.06;56.00
6423;BME280;3244;42.708;23.288;2023-03-04T11:29:02;94864.72;;;14.00;56.11
6423;BME280;3244;42.708;23.288;2023-03-04T11:31:35;94858.53;;;13.87;56.49
6423;BME280;3244;42.708;23.288;2023-03-04T11:34:08;94856.75;;;13.89;56.76
6423;BME280;3244;42.708;23.288;2023-03-04T11:36:51;94854.66;;;13.80;56.27
6423;BME280;3244;42.708;23.288;2023-03-04T11:39:28;94836.19;;;13.75;56.36
6423;BME280;3244;42.708;23.288;2023-03-04T11:42:02;94847.91;;;13.79;56.09
6423;BME280;3244;42.708;23.288;2023-03-04T11:44:30;94845.31;;;13.61;56.64
6423;BME280;3244;42.708;23.288;2023-03-04T11:50:21;94836.63;;;13.31;56.76
6423;BME280;3244;42.708;23.288;2023-03-04T11:52:59;94844.75;;;12.84;58.42
6423;BME280;3244;42.708;23.288;2023-03-04T11:55:37;94834.78;;;12.41;59.37
6423;BME280;3244;42.708;23.288;2023-03-04T12:01:03;94824.25;;;12.30;60.15
6423;BME280;3244;42.708;23.288;2023-03-04T12:03:49;94826.88;;;12.47;59.43
6423;BME280;3244;42.708;23.288;2023-03-04T12:06:27;94818.53;;;12.62;59.35
6423;BME280;3244;42.708;23.288;2023-03-04T12:09:07;94817.84;;;12.77;59.54
6423;BME280;3244;42.708;23.288;2023-03-04T12:11:45;94827.53;;;13.07;58.39
6423;BME280;3244;42.708;23.288;2023-03-04T12:14:22;94812.00;;;13.30;58.13
6423;BME280;3244;42.708;23.288;2023-03-04T12:17:20;94806.31;;;13.59;57.36
6423;BME280;3244;42.708;23.288;2023-03-04T12:20:17;94803.75;;;13.59;56.21
6423;BME280;3244;42.708;23.288;2023-03-04T12:22:52;94806.13;;;13.45;56.27
6423;BME280;3244;42.708;23.288;2023-03-04T12:25:40;94810.56;;;12.70;58.07
6423;BME280;3244;42.708;23.288;2023-03-04T12:28:21;94797.47;;;12.40;59.13
6423;BME280;3244;42.708;23.288;2023-03-04T12:31:02;94803.38;;;12.40;60.16
6423;BME280;3244;42.708;23.288;2023-03-04T12:33:40;94797.66;;;12.16;60.62
6423;BME280;3244;42.708;23.288;2023-03-04T12:36:17;94791.84;;;11.94;61.16
6423;BME280;3244;42.708;23.288;2023-03-04T12:38:58;94789.72;;;11.85;61.08
6423;BME280;3244;42.708;23.288;2023-03-04T12:41:37;94784.75;;;11.82;61.13
6423;BME280;3244;42.708;23.288;2023-03-04T12:44:14;94786.28;;;11.86;61.32
6423;BME280;3244;42.708;23.288;2023-03-04T12:46:56;94783.66;;;11.87;62.05
6423;BME280;3244;42.708;23.288;2023-03-04T12:49:57;94781.28;;;12.03;62.06
6423;BME280;3244;42.708;23.288;2023-03-04T12:52:34;94782.38;;;12.16;61.12
6423;BME280;3244;42.708;23.288;2023-03-04T12:55:09;94779.69;;;12.19;61.18
6423;BME280;3244;42.708;23.288;2023-03-04T12:57:36;94769.94;;;12.29;60.47
6423;BME280;3244;42.708;23.288;2023-03-04T13:00:18;94772.41;;;12.31;60.94
6423;BME280;3244;42.708;23.288;2023-03-04T13:03:03;94770.63;;;12.33;60.38
6423;BME280;3244;42.708;23.288;2023-03-04T13:05:51;94761.09;;;12.17;60.20
6423;BME280;3244;42.708;23.288;2023-03-04T13:08:30;94766.00;;;12.03;60.85
6423;BME280;3244;42.708;23.288;2023-03-04T13:11:00;94759.25;;;12.02;61.04
6423;BME280;3244;42.708;23.288;2023-03-04T13:13:37;94753.88;;;12.08;60.43
6423;BME280;3244;42.708;23.288;2023-03-04T13:16:29;94749.81;;;12.04;60.78
6423;BME280;3244;42.708;23.288;2023-03-04T13:18:57;94740.03;;;12.14;60.70
6423;BME280;3244;42.708;23.288;2023-03-04T13:21:25;94738.25;;;12.16;61.25
6423;BME280;3244;42.708;23.288;2023-03-04T13:23:52;94745.34;;;12.28;61.14
6423;BME280;3244;42.708;23.288;2023-03-04T13:26:22;94741.28;;;12.43;61.37
6423;BME280;3244;42.708;23.288;2023-03-04T13:29:08;94741.53;;;12.55;60.90
6423;BME280;3244;42.708;23.288;2023-03-04T13:31:58;94740.03;;;12.51;60.13
6423;BME280;3244;42.708;23.288;2023-03-04T13:34:44;94741.97;;;12.27;59.43
6423;BME280;3244;42.708;23.288;2023-03-04T13:37:30;94743.00;;;11.86;61.05